createdAt,value
2019-03-03T00:00:02.336Z,7.42
2019-03-03T00:01:10.411Z,7.40
2019-03-03T00:02:18.450Z,7.35
2019-03-03T00:03:26.498Z,7.37
2019-03-03T00:04:34.575Z,7.42
2019-03-03T00:05:42.631Z,7.42
2019-03-03T00:06:50.690Z,7.40
2019-03-03T00:07:58.765Z,7.37
2019-03-03T00:09:06.808Z,7.32
2019-03-03T00:10:14.864Z,7.37
2019-03-03T00:11:22.929Z,7.39
2019-03-03T00:12:30.998Z,7.35
2019-03-03T00:13:39.074Z,7.37
2019-03-03T00:14:47.217Z,7.42
2019-03-03T00:15:55.172Z,7.40
2019-03-03T00:17:03.248Z,7.30
2019-03-03T00:18:11.295Z,7.39
2019-03-03T00:19:19.343Z,7.35
2019-03-03T00:20:27.402Z,7.35
2019-03-03T00:21:35.473Z,7.35
2019-03-03T00:22:43.552Z,7.30
2019-03-03T00:23:51.590Z,7.25
2019-03-03T00:24:59.693Z,7.24
2019-03-03T00:26:07.715Z,7.30
2019-03-03T00:27:15.758Z,7.25
2019-03-03T00:28:23.850Z,7.24
2019-03-03T00:29:31.919Z,7.27
2019-03-03T00:30:39.950Z,7.24
2019-03-03T00:31:47.981Z,7.25
2019-03-03T00:32:56.064Z,7.28
2019-03-03T00:34:04.105Z,7.28
2019-03-03T00:35:12.202Z,7.34
2019-03-03T00:36:20.244Z,7.27
2019-03-03T00:37:28.330Z,7.31
2019-03-03T00:38:36.386Z,7.32
2019-03-03T00:39:44.430Z,7.42
2019-03-03T00:40:52.507Z,7.34
2019-03-03T00:42:00.536Z,7.40
2019-03-03T00:43:08.635Z,7.34
2019-03-03T00:44:16.670Z,7.27
2019-03-03T00:45:24.741Z,7.27
2019-03-03T00:46:32.819Z,7.28
2019-03-03T00:47:40.842Z,7.32
2019-03-03T00:48:48.917Z,7.30
2019-03-03T00:49:56.980Z,7.25
2019-03-03T00:51:05.035Z,7.25
2019-03-03T00:52:14.242Z,7.21
2019-03-03T00:53:21.166Z,7.24
2019-03-03T00:54:29.230Z,7.23
2019-03-03T00:55:37.279Z,7.32
2019-03-03T00:56:45.321Z,7.23
2019-03-03T00:57:53.372Z,7.17
2019-03-03T00:59:01.447Z,7.27
2019-03-03T01:00:09.490Z,7.27
2019-03-03T01:01:17.557Z,7.24
2019-03-03T01:02:25.916Z,7.27
2019-03-03T01:03:33.683Z,7.28
2019-03-03T01:04:42.040Z,7.31
2019-03-03T01:05:49.820Z,7.30
2019-03-03T01:06:57.873Z,7.27
2019-03-03T01:08:05.935Z,7.24
2019-03-03T01:09:13.970Z,7.31
2019-03-03T01:10:22.055Z,7.23
2019-03-03T01:11:30.132Z,7.24
2019-03-03T01:12:38.205Z,7.27
2019-03-03T01:13:46.239Z,7.39
2019-03-03T01:14:54.316Z,7.32
2019-03-03T01:16:02.393Z,7.37
2019-03-03T01:17:10.407Z,7.32
2019-03-03T01:18:18.470Z,7.34
2019-03-03T01:19:26.529Z,7.35
2019-03-03T01:20:34.580Z,7.35
2019-03-03T01:21:42.667Z,7.30
2019-03-03T01:22:50.698Z,7.34
2019-03-03T01:23:58.783Z,7.30
2019-03-03T01:25:06.834Z,7.27
2019-03-03T01:26:14.907Z,7.27
2019-03-03T01:27:22.950Z,7.17
2019-03-03T01:28:31.026Z,7.27
2019-03-03T01:29:39.064Z,7.23
2019-03-03T01:30:47.118Z,7.17
2019-03-03T01:31:55.195Z,7.20
2019-03-03T01:33:03.245Z,7.16
2019-03-03T01:34:11.313Z,7.15
2019-03-03T01:35:19.369Z,7.15
2019-03-03T01:36:27.411Z,7.12
2019-03-03T01:37:35.475Z,7.16
2019-03-03T01:38:43.531Z,7.16
2019-03-03T01:39:51.594Z,7.16
2019-03-03T01:40:59.675Z,7.03
2019-03-03T01:42:07.723Z,6.98
2019-03-03T01:43:15.792Z,6.98
2019-03-03T01:44:23.854Z,6.97
2019-03-03T01:45:31.934Z,6.87
2019-03-03T01:46:39.968Z,6.85
2019-03-03T01:47:48.034Z,6.81
2019-03-03T01:48:56.101Z,6.79
2019-03-03T01:50:04.154Z,6.64
2019-03-03T01:51:12.214Z,6.59
2019-03-03T01:52:20.274Z,6.48
2019-03-03T01:53:28.322Z,6.41
2019-03-03T01:54:36.397Z,6.38
2019-03-03T01:55:44.453Z,6.38
2019-03-03T01:56:52.518Z,6.37
2019-03-03T01:58:00.557Z,6.27
2019-03-03T01:59:08.626Z,6.31
2019-03-03T02:00:16.674Z,6.18
2019-03-03T02:01:24.749Z,6.19
2019-03-03T02:02:32.802Z,6.09
2019-03-03T02:03:40.865Z,6.04
2019-03-03T02:04:48.918Z,6.01
2019-03-03T02:05:56.971Z,6.14
2019-03-03T02:07:05.217Z,6.08
2019-03-03T02:08:13.282Z,6.12
2019-03-03T02:09:21.148Z,6.06
2019-03-03T02:10:29.234Z,6.08
2019-03-03T02:11:37.288Z,6.06
2019-03-03T02:12:45.349Z,6.14
2019-03-03T02:13:53.383Z,6.15
2019-03-03T02:15:01.446Z,6.17
2019-03-03T02:16:09.509Z,6.14
2019-03-03T02:17:17.587Z,6.15
2019-03-03T02:18:25.639Z,6.14
2019-03-03T02:19:33.701Z,6.27
2019-03-03T02:20:41.750Z,6.31
2019-03-03T02:21:49.823Z,6.28
2019-03-03T02:22:57.861Z,6.36
2019-03-03T02:24:05.937Z,6.25
2019-03-03T02:25:13.977Z,6.40
2019-03-03T02:26:22.065Z,6.33
2019-03-03T02:27:30.111Z,6.31
2019-03-03T02:28:38.203Z,6.34
2019-03-03T02:29:46.230Z,6.34
2019-03-03T02:30:54.290Z,6.31
2019-03-03T02:32:02.360Z,6.33
2019-03-03T02:33:10.412Z,6.36
2019-03-03T02:34:18.448Z,6.36
2019-03-03T02:35:26.533Z,6.43
2019-03-03T02:36:34.590Z,6.38
2019-03-03T02:37:42.648Z,6.43
2019-03-03T02:38:50.733Z,6.46
2019-03-03T02:39:58.760Z,6.43
2019-03-03T02:41:06.850Z,6.54
2019-03-03T02:42:14.882Z,6.46
2019-03-03T02:43:22.931Z,6.46
2019-03-03T02:44:31.013Z,6.49
2019-03-03T02:45:39.061Z,6.51
2019-03-03T02:46:47.126Z,6.49
2019-03-03T02:47:55.190Z,6.41
2019-03-03T02:49:03.268Z,6.40
2019-03-03T02:50:11.299Z,6.49
2019-03-03T02:51:19.364Z,6.40
2019-03-03T02:52:27.406Z,6.48
2019-03-03T02:53:35.486Z,6.44
2019-03-03T02:54:43.578Z,6.49
2019-03-03T02:55:51.597Z,6.49
2019-03-03T02:56:59.657Z,6.46
2019-03-03T02:58:07.699Z,6.48
2019-03-03T02:59:15.822Z,6.46
2019-03-03T03:00:23.830Z,6.44
2019-03-03T03:01:31.877Z,6.54
2019-03-03T03:02:39.949Z,6.48
2019-03-03T03:03:48.059Z,6.41
2019-03-03T03:04:56.102Z,6.44
2019-03-03T03:06:04.133Z,6.49
2019-03-03T03:07:12.190Z,6.46
2019-03-03T03:08:20.263Z,6.38
2019-03-03T03:09:28.317Z,6.41
2019-03-03T03:10:36.362Z,6.37
2019-03-03T03:11:44.419Z,6.34
2019-03-03T03:12:52.511Z,6.30
2019-03-03T03:14:00.542Z,6.19
2019-03-03T03:15:08.615Z,6.06
2019-03-03T03:16:16.705Z,6.04
2019-03-03T03:17:24.739Z,6.03
2019-03-03T03:18:32.772Z,5.93
2019-03-03T03:19:40.846Z,6.03
2019-03-03T03:20:48.903Z,5.83
2019-03-03T03:21:56.978Z,5.90
2019-03-03T03:23:05.026Z,5.82
2019-03-03T03:24:13.103Z,5.67
2019-03-03T03:25:21.144Z,5.74
2019-03-03T03:26:29.208Z,5.64
2019-03-03T03:27:37.293Z,5.60
2019-03-03T03:28:45.330Z,5.45
2019-03-03T03:29:53.396Z,5.33
2019-03-03T03:31:01.436Z,5.33
2019-03-03T03:32:09.486Z,5.38
2019-03-03T03:33:17.533Z,5.20
2019-03-03T03:34:25.637Z,5.22
2019-03-03T03:35:33.690Z,5.15
2019-03-03T03:36:41.748Z,5.07
2019-03-03T03:37:49.805Z,4.97
2019-03-03T03:38:57.843Z,4.92
2019-03-03T03:40:05.928Z,4.86
2019-03-03T03:41:13.965Z,4.82
2019-03-03T03:42:22.108Z,4.75
2019-03-03T03:43:30.071Z,4.73
2019-03-03T03:44:38.142Z,4.72
2019-03-03T03:45:46.208Z,4.67
2019-03-03T03:46:54.265Z,4.54
2019-03-03T03:48:02.328Z,4.62
2019-03-03T03:49:10.393Z,4.54
2019-03-03T03:50:18.431Z,4.59
2019-03-03T03:51:26.483Z,4.47
2019-03-03T03:52:34.549Z,4.42
2019-03-03T03:53:42.610Z,4.42
2019-03-03T03:54:50.680Z,4.45
2019-03-03T03:55:58.735Z,4.34
2019-03-03T03:57:06.795Z,4.33
2019-03-03T03:58:14.861Z,4.42
2019-03-03T03:59:22.930Z,4.32
2019-03-03T04:00:30.970Z,4.37
2019-03-03T04:01:39.023Z,4.30
2019-03-03T04:02:47.079Z,4.36
2019-03-03T04:03:55.152Z,4.36
2019-03-03T04:05:03.211Z,4.30
2019-03-03T04:06:11.254Z,4.40
2019-03-03T04:07:19.321Z,4.34
2019-03-03T04:08:27.362Z,4.40
2019-03-03T04:09:35.428Z,4.40
2019-03-03T04:10:43.483Z,4.51
2019-03-03T04:11:51.547Z,4.52
2019-03-03T04:12:59.633Z,4.44
2019-03-03T04:14:07.683Z,4.60
2019-03-03T04:15:15.725Z,4.60
2019-03-03T04:16:23.790Z,4.59
2019-03-03T04:17:31.853Z,4.63
2019-03-03T04:18:39.897Z,4.60
2019-03-03T04:19:47.955Z,4.60
2019-03-03T04:20:56.069Z,4.58
2019-03-03T04:22:04.071Z,4.59
2019-03-03T04:23:12.135Z,4.52
2019-03-03T04:24:20.187Z,4.55
2019-03-03T04:25:28.260Z,4.63
2019-03-03T04:26:36.297Z,4.60
2019-03-03T04:27:44.365Z,4.63
2019-03-03T04:28:52.447Z,4.59
2019-03-03T04:30:00.505Z,4.62
2019-03-03T04:31:08.543Z,4.63
2019-03-03T04:32:16.602Z,4.54
2019-03-03T04:33:24.680Z,4.63
2019-03-03T04:34:32.709Z,4.63
2019-03-03T04:35:40.789Z,4.77
2019-03-03T04:36:48.831Z,4.72
2019-03-03T04:37:56.915Z,4.73
2019-03-03T04:39:04.956Z,4.67
2019-03-03T04:40:13.027Z,4.77
2019-03-03T04:41:21.071Z,4.78
2019-03-03T04:42:29.203Z,4.73
2019-03-03T04:43:37.181Z,4.80
2019-03-03T04:44:45.259Z,4.73
2019-03-03T04:45:53.334Z,4.66
2019-03-03T04:47:01.365Z,4.77
2019-03-03T04:48:09.426Z,4.78
2019-03-03T04:49:17.482Z,4.78
2019-03-03T04:50:25.598Z,4.78
2019-03-03T04:51:33.591Z,4.80
2019-03-03T04:52:41.657Z,4.77
2019-03-03T04:53:49.754Z,4.89
2019-03-03T04:54:57.767Z,4.78
2019-03-03T04:56:05.835Z,4.84
2019-03-03T04:57:13.893Z,4.86
2019-03-03T04:58:22.007Z,4.82
2019-03-03T04:59:30.063Z,4.86
2019-03-03T05:00:38.050Z,4.89
2019-03-03T05:01:46.143Z,4.91
2019-03-03T05:02:54.208Z,4.85
2019-03-03T05:04:02.265Z,4.84
2019-03-03T05:05:10.324Z,4.88
2019-03-03T05:06:18.358Z,4.94
2019-03-03T05:07:26.423Z,4.88
2019-03-03T05:08:34.514Z,4.88
2019-03-03T05:09:42.549Z,4.85
2019-03-03T05:10:50.605Z,4.82
2019-03-03T05:11:58.650Z,4.85
2019-03-03T05:13:06.743Z,4.85
2019-03-03T05:14:14.779Z,4.80
2019-03-03T05:15:22.852Z,4.85
2019-03-03T05:16:30.910Z,4.86
2019-03-03T05:17:38.957Z,4.91
2019-03-03T05:18:47.013Z,4.80
2019-03-03T05:19:55.071Z,4.85
2019-03-03T05:21:03.142Z,4.77
2019-03-03T05:22:11.183Z,4.84
2019-03-03T05:23:19.226Z,4.77
2019-03-03T05:24:33.840Z,4.78
2019-03-03T05:25:35.358Z,4.67
2019-03-03T05:26:43.406Z,4.73
2019-03-03T05:27:51.467Z,4.75
2019-03-03T05:28:59.572Z,4.69
2019-03-03T05:30:07.621Z,4.73
2019-03-03T05:31:15.653Z,4.66
2019-03-03T05:32:23.726Z,4.59
2019-03-03T05:33:31.765Z,4.58
2019-03-03T05:34:39.831Z,4.55
2019-03-03T05:35:47.866Z,4.63
2019-03-03T05:36:55.935Z,4.60
2019-03-03T05:38:04.002Z,4.60
2019-03-03T05:39:12.076Z,4.54
2019-03-03T05:40:20.114Z,4.63
2019-03-03T05:41:28.150Z,4.63
2019-03-03T05:42:36.232Z,4.54
2019-03-03T05:43:44.294Z,4.58
2019-03-03T05:44:52.362Z,4.55
2019-03-03T05:46:00.418Z,4.50
2019-03-03T05:47:08.447Z,4.51
2019-03-03T05:48:16.519Z,4.50
2019-03-03T05:49:24.586Z,4.42
2019-03-03T05:50:32.663Z,4.47
2019-03-03T05:51:40.683Z,4.51
2019-03-03T05:52:48.748Z,4.48
2019-03-03T05:53:56.850Z,4.47
2019-03-03T05:55:04.916Z,4.44
2019-03-03T05:56:12.942Z,4.51
2019-03-03T05:57:20.985Z,4.42
2019-03-03T05:58:29.071Z,4.47
2019-03-03T05:59:37.104Z,4.47
2019-03-03T06:00:45.179Z,4.45
2019-03-03T06:01:53.218Z,4.41
2019-03-03T06:03:01.293Z,4.37
2019-03-03T06:04:09.356Z,4.44
2019-03-03T06:05:17.394Z,4.34
2019-03-03T06:06:25.454Z,4.30
2019-03-03T06:07:33.524Z,4.33
2019-03-03T06:08:41.576Z,4.33
2019-03-03T06:09:49.641Z,4.27
2019-03-03T06:10:57.678Z,4.24
2019-03-03T06:12:05.754Z,4.22
2019-03-03T06:13:13.826Z,4.20
2019-03-03T06:14:21.886Z,4.18
2019-03-03T06:15:29.924Z,4.23
2019-03-03T06:16:37.991Z,4.22
2019-03-03T06:17:46.044Z,4.16
2019-03-03T06:18:54.111Z,4.20
2019-03-03T06:20:02.176Z,4.09
2019-03-03T06:21:14.144Z,4.11
2019-03-03T06:22:18.286Z,4.14
2019-03-03T06:23:26.335Z,4.12
2019-03-03T06:24:34.394Z,4.18
2019-03-03T06:25:42.494Z,4.18
2019-03-03T06:26:50.508Z,4.16
2019-03-03T06:27:58.582Z,4.04
2019-03-03T06:29:06.637Z,4.12
2019-03-03T06:30:14.680Z,4.16
2019-03-03T06:31:22.750Z,4.04
2019-03-03T06:32:30.805Z,4.08
2019-03-03T06:33:38.865Z,4.09
2019-03-03T06:34:46.915Z,4.12
2019-03-03T06:35:54.998Z,4.11
2019-03-03T06:37:03.040Z,4.08
2019-03-03T06:38:11.097Z,4.05
2019-03-03T06:39:19.175Z,4.15
2019-03-03T06:40:27.211Z,4.14
2019-03-03T06:41:35.277Z,4.22
2019-03-03T06:42:43.336Z,4.15
2019-03-03T06:43:51.384Z,4.20
2019-03-03T06:44:59.433Z,4.18
2019-03-03T06:46:07.465Z,4.29
2019-03-03T06:47:15.583Z,4.32
2019-03-03T06:48:23.592Z,4.37
2019-03-03T06:49:31.899Z,4.41
2019-03-03T06:50:39.739Z,4.48
2019-03-03T06:51:47.777Z,4.47
2019-03-03T06:52:55.865Z,4.63
2019-03-03T06:54:04.223Z,4.67
2019-03-03T06:55:12.002Z,4.67
2019-03-03T06:56:20.667Z,4.84
2019-03-03T06:57:28.066Z,4.99
2019-03-03T06:58:36.156Z,5.12
2019-03-03T06:59:44.210Z,5.21
2019-03-03T07:00:52.297Z,5.27
2019-03-03T07:02:00.327Z,5.20
2019-03-03T07:03:08.387Z,5.38
2019-03-03T07:04:16.451Z,5.46
2019-03-03T07:05:25.992Z,5.39
2019-03-03T07:06:32.557Z,5.42
2019-03-03T07:07:40.630Z,5.53
2019-03-03T07:08:48.675Z,5.51
2019-03-03T07:09:56.741Z,5.54
2019-03-03T07:11:04.818Z,5.61
2019-03-03T07:12:12.864Z,5.63
2019-03-03T07:13:20.961Z,5.61
2019-03-03T07:14:28.954Z,5.71
2019-03-03T07:15:37.023Z,5.68
2019-03-03T07:16:45.085Z,5.65
2019-03-03T07:17:53.153Z,5.72
2019-03-03T07:19:01.227Z,5.81
2019-03-03T07:20:09.271Z,5.76
2019-03-03T07:21:17.335Z,5.79
2019-03-03T07:22:25.402Z,5.86
2019-03-03T07:23:33.434Z,5.86
2019-03-03T07:24:41.502Z,5.81
2019-03-03T07:25:49.566Z,5.86
2019-03-03T07:26:57.586Z,5.97
2019-03-03T07:28:05.667Z,5.85
2019-03-03T07:29:13.737Z,5.96
2019-03-03T07:30:21.824Z,6.12
2019-03-03T07:31:29.884Z,6.15
2019-03-03T07:32:37.940Z,6.38
2019-03-03T07:33:46.220Z,6.40
2019-03-03T07:34:54.082Z,6.52
2019-03-03T07:36:02.453Z,6.66
2019-03-03T07:37:10.289Z,6.67
2019-03-03T07:38:18.223Z,6.71
2019-03-03T07:39:26.316Z,6.70
2019-03-03T07:40:34.655Z,6.79
2019-03-03T07:41:42.550Z,6.85
2019-03-03T07:42:50.458Z,6.92
2019-03-03T07:43:58.761Z,6.94
2019-03-03T07:45:06.596Z,6.97
2019-03-03T07:46:14.633Z,6.91
2019-03-03T07:47:22.920Z,7.02
2019-03-03T07:48:31.281Z,7.07
2019-03-03T07:49:39.134Z,7.07
2019-03-03T07:50:47.123Z,7.13
2019-03-03T07:51:55.179Z,7.10
2019-03-03T07:53:03.385Z,7.10
2019-03-03T07:54:11.350Z,7.13
2019-03-03T07:55:19.134Z,7.05
2019-03-03T07:56:27.182Z,7.13
2019-03-03T07:57:35.285Z,7.16
2019-03-03T07:58:43.327Z,7.16
2019-03-03T07:59:51.384Z,7.10
2019-03-03T08:00:59.427Z,7.25
2019-03-03T08:02:07.497Z,7.24
2019-03-03T08:03:15.554Z,7.39
2019-03-03T08:04:23.614Z,7.40
2019-03-03T08:05:31.694Z,7.45
2019-03-03T08:06:39.736Z,7.50
2019-03-03T08:07:47.798Z,7.49
2019-03-03T08:08:55.872Z,7.64
2019-03-03T08:10:03.926Z,7.55
2019-03-03T08:11:11.976Z,7.69
2019-03-03T08:12:20.059Z,7.74
2019-03-03T08:13:28.112Z,7.85
2019-03-03T08:14:36.188Z,7.93
2019-03-03T08:15:44.218Z,7.98
2019-03-03T08:16:52.285Z,7.98
2019-03-03T08:18:00.366Z,8.10
2019-03-03T08:19:08.644Z,8.18
2019-03-03T08:20:17.059Z,8.15
2019-03-03T08:21:25.114Z,8.23
2019-03-03T08:22:32.622Z,8.37
2019-03-03T08:23:41.200Z,8.45
2019-03-03T08:24:50.706Z,8.44
2019-03-03T08:25:57.384Z,8.52
2019-03-03T08:27:05.286Z,8.56
2019-03-03T08:28:14.779Z,8.63
2019-03-03T08:29:21.556Z,8.76
2019-03-03T08:30:31.027Z,8.79
2019-03-03T08:31:37.094Z,8.80
2019-03-03T08:32:45.489Z,8.81
2019-03-03T08:33:53.219Z,9.01
2019-03-03T08:35:04.131Z,8.98
2019-03-03T08:36:09.689Z,8.96
2019-03-03T08:37:17.622Z,8.98
2019-03-03T08:38:25.483Z,8.98
2019-03-03T08:39:33.811Z,9.02
2019-03-03T08:40:41.930Z,9.02
2019-03-03T08:41:50.364Z,9.17
2019-03-03T08:42:58.063Z,9.21
2019-03-03T08:44:07.021Z,9.17
2019-03-03T08:45:14.252Z,9.35
2019-03-03T08:46:23.931Z,9.47
2019-03-03T08:47:34.394Z,9.46
2019-03-03T08:48:41.969Z,9.53
2019-03-03T08:49:48.117Z,9.58
2019-03-03T08:50:56.277Z,9.56
2019-03-03T08:52:04.240Z,9.50
2019-03-03T08:53:12.892Z,9.56
2019-03-03T08:54:20.920Z,9.58
2019-03-03T08:55:28.410Z,9.56
2019-03-03T08:56:36.479Z,9.71
2019-03-03T08:57:44.568Z,9.83
2019-03-03T08:58:52.626Z,9.90
2019-03-03T09:00:01.262Z,10.02
2019-03-03T09:01:10.010Z,9.97
2019-03-03T09:02:17.104Z,10.15
2019-03-03T09:03:24.954Z,10.20
2019-03-03T09:04:35.889Z,10.20
2019-03-03T09:05:43.874Z,10.22
2019-03-03T09:06:51.664Z,10.23
2019-03-03T09:07:59.975Z,10.12
2019-03-03T09:09:08.726Z,10.20
2019-03-03T09:10:24.971Z,10.14
2019-03-03T09:11:24.412Z,10.20
2019-03-03T09:12:31.973Z,10.26
2019-03-03T09:13:40.185Z,10.32
2019-03-03T09:14:48.267Z,10.34
2019-03-03T09:15:56.817Z,10.56
2019-03-03T09:17:04.234Z,10.53
2019-03-03T09:18:12.482Z,10.63
2019-03-03T09:19:20.349Z,10.45
2019-03-03T09:20:29.033Z,10.55
2019-03-03T09:21:36.501Z,10.64
2019-03-03T09:22:44.537Z,10.66
2019-03-03T09:23:52.615Z,10.64
2019-03-03T09:25:01.276Z,10.74
2019-03-03T09:26:08.730Z,10.71
2019-03-03T09:27:16.819Z,10.66
2019-03-03T09:28:25.340Z,10.70
2019-03-03T09:29:33.912Z,10.67
2019-03-03T09:30:41.324Z,10.40
2019-03-03T09:31:49.064Z,10.44
2019-03-03T09:32:59.077Z,10.42
2019-03-03T09:34:05.714Z,10.42
2019-03-03T09:35:13.819Z,10.59
2019-03-03T09:36:21.988Z,10.56
2019-03-03T09:37:29.873Z,10.52
2019-03-03T09:38:38.072Z,10.44
2019-03-03T09:39:48.512Z,10.51
2019-03-03T09:40:55.991Z,10.56
2019-03-03T09:42:04.045Z,10.53
2019-03-03T09:44:42.653Z,10.81
2019-03-03T09:45:37.360Z,10.79
2019-03-03T09:46:45.369Z,10.78
2019-03-03T09:47:55.668Z,10.82
2019-03-03T09:49:01.485Z,10.76
2019-03-03T09:50:09.685Z,10.79
2019-03-03T09:51:17.612Z,10.73
2019-03-03T09:52:25.683Z,10.79
2019-03-03T09:53:33.750Z,10.82
2019-03-03T09:54:41.819Z,10.78
2019-03-03T09:55:49.888Z,10.88
2019-03-03T09:56:57.928Z,10.84
2019-03-03T09:58:05.993Z,10.91
2019-03-03T09:59:14.056Z,10.86
2019-03-03T10:00:22.427Z,11.09
2019-03-03T10:01:30.173Z,11.07
2019-03-03T10:02:38.243Z,11.14
2019-03-03T10:03:46.320Z,11.27
2019-03-03T10:04:54.359Z,11.37
2019-03-03T10:06:07.106Z,11.49
2019-03-03T10:07:14.731Z,11.49
2019-03-03T10:08:22.819Z,11.36
2019-03-03T10:09:30.876Z,11.32
2019-03-03T10:10:38.948Z,11.35
2019-03-03T10:11:46.966Z,11.37
2019-03-03T10:12:55.063Z,11.46
2019-03-03T10:14:03.197Z,11.55
2019-03-03T10:15:11.174Z,11.57
2019-03-03T10:16:19.258Z,11.64
2019-03-03T10:17:27.320Z,11.58
2019-03-03T10:18:35.380Z,11.60
2019-03-03T10:19:43.458Z,11.57
2019-03-03T10:20:51.497Z,11.69
2019-03-03T10:21:59.554Z,11.69
2019-03-03T10:23:07.611Z,11.72
2019-03-03T10:24:15.703Z,11.64
2019-03-03T10:25:23.765Z,11.47
2019-03-03T10:26:31.842Z,11.44
2019-03-03T10:27:39.886Z,11.35
2019-03-03T10:28:47.948Z,11.39
2019-03-03T10:29:56.023Z,11.28
2019-03-03T10:31:04.083Z,11.28
2019-03-03T10:32:12.149Z,11.21
2019-03-03T10:33:20.228Z,11.19
2019-03-03T10:34:28.313Z,11.24
2019-03-03T10:35:36.327Z,11.21
2019-03-03T10:36:44.384Z,11.17
2019-03-03T10:37:52.472Z,11.15
2019-03-03T10:39:00.517Z,11.10
2019-03-03T10:40:08.597Z,11.14
2019-03-03T10:41:16.637Z,11.07
2019-03-03T10:42:24.694Z,11.21
2019-03-03T10:43:32.792Z,11.36
2019-03-03T10:44:40.833Z,11.49
2019-03-03T10:45:49.005Z,11.57
2019-03-03T10:46:56.964Z,11.64
2019-03-03T10:48:05.034Z,11.75
2019-03-03T10:49:13.093Z,11.75
2019-03-03T10:50:21.197Z,11.82
2019-03-03T10:51:29.251Z,11.76
2019-03-03T10:52:37.292Z,11.82
2019-03-03T10:53:45.348Z,11.78
2019-03-03T10:54:53.459Z,11.82
2019-03-03T10:56:01.493Z,11.95
2019-03-03T10:57:09.544Z,12.01
2019-03-03T10:58:17.622Z,12.21
2019-03-03T10:59:25.688Z,12.29
2019-03-03T11:00:33.747Z,12.47
2019-03-03T11:01:41.808Z,12.53
2019-03-03T11:02:49.875Z,12.65
2019-03-03T11:03:57.919Z,12.64
2019-03-03T11:05:06.017Z,12.74
2019-03-03T11:06:14.059Z,12.78
2019-03-03T11:07:22.136Z,12.86
2019-03-03T11:08:30.206Z,12.90
2019-03-03T11:09:38.239Z,13.00
2019-03-03T11:10:46.351Z,13.03
2019-03-03T11:11:54.440Z,13.11
2019-03-03T11:13:02.460Z,13.15
2019-03-03T11:14:10.534Z,13.14
2019-03-03T11:15:18.910Z,13.14
2019-03-03T11:16:26.674Z,13.12
2019-03-03T11:17:34.714Z,13.17
2019-03-03T11:18:42.787Z,13.14
2019-03-03T11:19:50.913Z,13.01
2019-03-03T11:20:58.917Z,12.97
2019-03-03T11:22:06.981Z,12.97
2019-03-03T11:23:15.055Z,12.62
2019-03-03T11:24:23.107Z,12.79
2019-03-03T11:25:31.182Z,12.87
2019-03-03T11:26:39.231Z,12.87
2019-03-03T11:27:47.326Z,12.93
2019-03-03T11:28:55.387Z,12.92
2019-03-03T11:30:03.444Z,13.00
2019-03-03T11:31:11.511Z,13.00
2019-03-03T11:32:19.578Z,12.93
2019-03-03T11:33:27.607Z,13.00
2019-03-03T11:34:35.688Z,13.00
2019-03-03T11:35:43.776Z,13.03
2019-03-03T11:36:51.831Z,13.15
2019-03-03T11:37:59.918Z,13.22
2019-03-03T11:39:07.950Z,13.20
2019-03-03T11:40:16.046Z,13.26
2019-03-03T11:41:24.100Z,13.19
2019-03-03T11:42:32.145Z,13.22
2019-03-03T11:43:40.207Z,13.23
2019-03-03T11:44:48.296Z,13.28
2019-03-03T11:45:56.337Z,13.30
2019-03-03T11:47:04.426Z,13.42
2019-03-03T11:48:12.531Z,13.39
2019-03-03T11:49:20.551Z,13.49
2019-03-03T11:50:28.611Z,13.64
2019-03-03T11:51:36.667Z,13.66
2019-03-03T11:52:44.743Z,13.69
2019-03-03T11:53:52.831Z,13.75
2019-03-03T11:55:01.233Z,13.70
2019-03-03T11:56:08.953Z,13.75
2019-03-03T11:57:17.019Z,13.71
2019-03-03T11:58:30.187Z,13.73
2019-03-03T11:59:34.129Z,13.73
2019-03-03T12:00:42.233Z,13.71
2019-03-03T12:01:50.278Z,13.75
2019-03-03T12:02:58.350Z,13.82
2019-03-03T12:04:11.456Z,13.85
2019-03-03T12:05:19.741Z,13.82
2019-03-03T12:07:44.504Z,14.06
2019-03-03T12:08:50.375Z,14.09
2019-03-03T12:09:58.435Z,14.24
2019-03-03T12:11:19.323Z,14.32
2019-03-03T12:12:14.577Z,14.29
2019-03-03T12:13:22.640Z,14.24
2019-03-03T12:14:30.706Z,14.32
2019-03-03T12:15:38.791Z,14.22
2019-03-03T12:16:46.845Z,14.39
2019-03-03T12:17:54.922Z,14.33
2019-03-03T12:19:02.974Z,14.40
2019-03-03T12:20:11.046Z,14.37
2019-03-03T12:21:19.093Z,14.37
2019-03-03T12:23:38.053Z,14.36
2019-03-03T12:24:50.634Z,14.40
2019-03-03T12:25:56.608Z,14.42
2019-03-03T12:27:04.661Z,14.25
2019-03-03T12:28:12.742Z,14.21
2019-03-03T12:29:20.797Z,14.15
2019-03-03T12:30:28.867Z,14.21
2019-03-03T12:31:36.931Z,14.20
2019-03-03T12:32:45.002Z,14.18
2019-03-03T12:33:53.071Z,14.33
2019-03-03T12:35:01.118Z,14.33
2019-03-03T12:36:09.239Z,14.42
2019-03-03T12:37:17.251Z,14.37
2019-03-03T12:38:25.322Z,14.27
2019-03-03T12:39:33.391Z,14.20
2019-03-03T12:40:41.467Z,14.24
2019-03-03T12:41:49.540Z,14.27
2019-03-03T12:42:57.569Z,14.29
2019-03-03T12:44:05.649Z,13.97
2019-03-03T12:45:13.737Z,13.89
2019-03-03T12:46:21.799Z,13.99
2019-03-03T12:47:29.868Z,14.10
2019-03-03T12:48:37.905Z,14.10
2019-03-03T12:49:45.987Z,14.10
2019-03-03T12:50:54.067Z,13.99
2019-03-03T12:52:02.129Z,14.03
2019-03-03T12:53:10.210Z,14.09
2019-03-03T12:54:18.220Z,13.97
2019-03-03T12:55:26.292Z,13.84
2019-03-03T12:56:34.405Z,13.95
2019-03-03T12:57:42.466Z,13.96
2019-03-03T12:58:50.546Z,13.89
2019-03-03T12:59:58.583Z,13.95
2019-03-03T13:01:06.804Z,13.99
2019-03-03T13:02:14.719Z,14.07
2019-03-03T13:03:22.798Z,14.22
2019-03-03T13:04:30.859Z,14.35
2019-03-03T13:05:38.914Z,14.35
2019-03-03T13:06:46.975Z,14.32
2019-03-03T13:07:55.053Z,14.32
2019-03-03T13:09:03.117Z,14.36
2019-03-03T13:10:11.173Z,14.29
2019-03-03T13:11:19.245Z,14.37
2019-03-03T13:12:27.296Z,14.37
2019-03-03T13:13:35.379Z,14.36
2019-03-03T13:14:44.031Z,14.46
2019-03-03T13:15:51.505Z,14.45
2019-03-03T13:16:59.572Z,14.46
2019-03-03T13:18:07.634Z,14.24
2019-03-03T13:19:15.713Z,13.91
2019-03-03T13:20:23.774Z,13.78
2019-03-03T13:21:31.859Z,13.85
2019-03-03T13:22:39.908Z,13.71
2019-03-03T13:23:47.983Z,13.73
2019-03-03T13:24:56.030Z,13.75
2019-03-03T13:26:04.104Z,13.75
2019-03-03T13:27:12.172Z,13.63
2019-03-03T13:28:21.209Z,13.75
2019-03-03T13:29:28.308Z,13.67
2019-03-03T13:30:36.375Z,13.70
2019-03-03T13:31:44.444Z,13.64
2019-03-03T13:32:52.509Z,13.62
2019-03-03T13:34:00.545Z,13.52
2019-03-03T13:35:08.643Z,13.45
2019-03-03T13:36:16.711Z,13.41
2019-03-03T13:37:24.773Z,13.33
2019-03-03T13:38:32.822Z,13.29
2019-03-03T13:39:40.885Z,13.26
2019-03-03T13:40:48.961Z,13.19
2019-03-03T13:41:57.017Z,13.23
2019-03-03T13:43:05.111Z,13.23
2019-03-03T13:44:13.150Z,13.38
2019-03-03T13:45:21.230Z,13.39
2019-03-03T13:46:29.288Z,13.45
2019-03-03T13:47:37.418Z,13.52
2019-03-03T13:48:45.416Z,13.39
2019-03-03T13:49:53.479Z,13.51
2019-03-03T13:51:01.538Z,13.57
2019-03-03T13:52:09.632Z,13.48
2019-03-03T13:53:17.671Z,13.46
2019-03-03T13:54:25.750Z,13.41
2019-03-03T13:55:33.828Z,13.39
2019-03-03T13:56:41.886Z,13.22
2019-03-03T13:57:50.035Z,13.15
2019-03-03T13:58:58.003Z,13.17
2019-03-03T14:00:06.070Z,13.17
2019-03-03T14:01:14.161Z,13.26
2019-03-03T14:02:22.200Z,13.22
2019-03-03T14:03:30.280Z,13.38
2019-03-03T14:04:38.333Z,13.42
2019-03-03T14:05:46.451Z,13.45
2019-03-03T14:06:54.455Z,13.45
2019-03-03T14:08:02.527Z,13.48
2019-03-03T14:09:10.607Z,13.51
2019-03-03T14:10:18.662Z,13.51
2019-03-03T14:11:26.712Z,13.55
2019-03-03T14:12:34.787Z,13.54
2019-03-03T14:13:42.855Z,13.52
2019-03-03T14:14:50.916Z,13.52
2019-03-03T14:15:59.008Z,13.49
2019-03-03T14:17:07.057Z,13.55
2019-03-03T14:18:15.167Z,13.55
2019-03-03T14:19:23.180Z,13.33
2019-03-03T14:20:31.256Z,13.39
2019-03-03T14:21:39.332Z,13.46
2019-03-03T14:22:47.372Z,13.48
2019-03-03T14:23:55.442Z,13.49
2019-03-03T14:25:03.524Z,13.52
2019-03-03T14:26:11.567Z,13.52
2019-03-03T14:27:19.650Z,13.52
2019-03-03T14:28:27.687Z,13.55
2019-03-03T14:29:35.782Z,13.51
2019-03-03T14:30:43.854Z,13.49
2019-03-03T14:31:51.936Z,13.55
2019-03-03T14:33:00.000Z,13.64
2019-03-03T14:34:08.032Z,13.59
2019-03-03T14:35:16.131Z,13.70
2019-03-03T14:36:24.181Z,13.73
2019-03-03T14:37:32.245Z,13.63
2019-03-03T14:38:40.310Z,13.59
2019-03-03T14:39:48.371Z,13.70
2019-03-03T14:40:56.450Z,13.57
2019-03-03T14:42:04.518Z,13.60
2019-03-03T14:43:12.574Z,13.51
2019-03-03T14:44:20.638Z,13.54
2019-03-03T14:45:28.694Z,13.67
2019-03-03T14:46:36.807Z,13.62
2019-03-03T14:47:44.836Z,13.66
2019-03-03T14:48:52.930Z,13.60
2019-03-03T14:50:00.984Z,13.55
2019-03-03T14:51:09.050Z,13.57
2019-03-03T14:52:17.090Z,13.45
2019-03-03T14:53:25.174Z,13.46
2019-03-03T14:54:33.238Z,13.51
2019-03-03T14:55:41.309Z,13.57
2019-03-03T14:56:49.354Z,13.57
2019-03-03T14:57:57.435Z,13.66